createdAt,value
2022-08-28T00:05:43.038Z,100638.84
2022-08-28T00:10:03.514Z,100645.41
2022-08-28T00:14:37.183Z,100639.22
2022-08-28T00:18:56.934Z,100645.59
2022-08-28T00:23:49.022Z,100647.63
2022-08-28T00:28:34.781Z,100655.41
2022-08-28T00:33:36.609Z,100642.47
2022-08-28T00:38:01.395Z,100653.28
2022-08-28T00:43:01.586Z,100640.75
2022-08-28T00:47:27.068Z,100654.69
2022-08-28T00:52:22.495Z,100657.84
2022-08-28T01:02:42.867Z,100661.66
2022-08-28T01:07:29.303Z,100615.25
2022-08-28T01:12:30.747Z,100661.78
2022-08-28T01:17:04.189Z,100660.94
2022-08-28T01:21:58.475Z,100656.72
2022-08-28T01:26:49.803Z,100646.19
2022-08-28T01:31:15.170Z,100673.84
2022-08-28T01:35:49.533Z,100662.19
2022-08-28T01:40:08.937Z,100667.84
2022-08-28T01:44:38.106Z,100662.63
2022-08-28T01:49:34.602Z,100665.06
2022-08-28T01:54:04.475Z,100624.44
2022-08-28T01:58:38.996Z,100663.91
2022-08-28T02:03:13.477Z,100621.19
2022-08-28T02:07:43.651Z,100662.25
2022-08-28T02:11:55.149Z,100657.53
2022-08-28T02:16:51.404Z,100652.81
2022-08-28T02:21:17.365Z,100655.03
2022-08-28T02:25:39.994Z,100618.38
2022-08-28T02:30:19.509Z,100653.13
2022-08-28T02:34:48.700Z,100660.75
2022-08-28T02:39:06.265Z,100659.53
2022-08-28T02:43:34.751Z,100663.78
2022-08-28T02:47:56.185Z,100668.66
2022-08-28T02:52:28.255Z,100664.91
2022-08-28T02:56:47.926Z,100669.66
2022-08-28T03:01:18.989Z,100678.25
2022-08-28T03:05:47.046Z,100660.59
2022-08-28T03:10:21.003Z,100671.31
2022-08-28T03:14:47.603Z,100637.66
2022-08-28T03:19:16.253Z,100686.56
2022-08-28T03:23:42.991Z,100694.34
2022-08-28T03:28:08.788Z,100693.97
2022-08-28T03:32:37.901Z,100705.78
2022-08-28T03:37:19.669Z,100708.97
2022-08-28T03:47:02.504Z,100718.00
2022-08-28T03:51:57.629Z,100707.31
2022-08-28T03:56:38.153Z,100705.59
2022-08-28T04:01:10.577Z,100723.00
2022-08-28T04:05:28.643Z,100714.34
2022-08-28T04:10:28.218Z,100723.94
2022-08-28T04:14:59.388Z,100722.16
2022-08-28T04:19:16.625Z,100725.13
2022-08-28T04:28:48.485Z,100722.13
2022-08-28T04:33:03.304Z,100663.56
2022-08-28T04:37:42.949Z,100707.22
2022-08-28T04:42:14.941Z,100733.16
2022-08-28T04:46:31.142Z,100736.03
2022-08-28T04:51:07.851Z,100731.41
2022-08-28T04:55:48.488Z,100739.28
2022-08-28T05:00:06.990Z,100730.75
2022-08-28T05:04:19.918Z,100740.69
2022-08-28T05:08:37.024Z,100715.69
2022-08-28T05:12:50.504Z,100743.44
2022-08-28T05:17:00.141Z,100751.56
2022-08-28T05:21:20.202Z,100751.63
2022-08-28T05:25:32.450Z,100758.00
2022-08-28T05:29:36.991Z,100758.94
2022-08-28T05:33:39.875Z,100754.28
2022-08-28T05:37:59.262Z,100757.91
2022-08-28T05:42:10.351Z,100761.72
2022-08-28T05:46:16.444Z,100765.91
2022-08-28T05:50:22.688Z,100766.69
2022-08-28T05:54:42.179Z,100764.13
2022-08-28T05:59:12.317Z,100763.97
2022-08-28T06:03:50.267Z,100768.28
2022-08-28T06:08:19.298Z,100773.69
2022-08-28T06:13:23.299Z,100775.41
2022-08-28T06:18:00.187Z,100771.69
2022-08-28T06:22:19.101Z,100776.16
2022-08-28T06:26:25.073Z,100740.22
2022-08-28T06:30:31.660Z,100773.72
2022-08-28T06:34:42.243Z,100755.44
2022-08-28T06:39:04.865Z,100773.78
2022-08-28T06:43:06.570Z,100765.34
2022-08-28T06:47:30.741Z,100774.69
2022-08-28T06:51:36.891Z,100748.97
2022-08-28T06:56:07.412Z,100742.00
2022-08-28T07:00:36.184Z,100748.19
2022-08-28T07:04:59.776Z,100747.53
2022-08-28T07:09:06.695Z,100778.28
2022-08-28T07:13:09.312Z,100778.53
2022-08-28T07:17:52.758Z,100784.56
2022-08-28T07:27:28.864Z,100781.00
2022-08-28T07:37:17.662Z,100780.00
2022-08-28T07:52:37.891Z,100781.09
2022-08-28T08:03:00.281Z,100762.63
2022-08-28T08:07:31.957Z,100783.16
2022-08-28T08:12:05.302Z,100776.16
2022-08-28T08:16:48.229Z,100773.47
2022-08-28T08:21:10.889Z,100775.88
2022-08-28T08:26:05.189Z,100778.88
2022-08-28T08:35:16.060Z,100776.28
2022-08-28T08:44:56.100Z,100776.59
2022-08-28T08:49:23.903Z,100774.81
2022-08-28T08:54:30.324Z,100744.06
2022-08-28T08:58:59.775Z,100764.53
2022-08-28T09:18:46.495Z,100748.25
2022-08-28T09:23:13.993Z,100766.09
2022-08-28T09:28:32.297Z,100761.28
2022-08-28T09:33:59.402Z,100758.78
2022-08-28T09:39:28.452Z,100759.66
2022-08-28T09:54:34.602Z,100749.81
2022-08-28T09:59:53.934Z,100750.41
2022-08-28T10:05:35.981Z,100741.06
2022-08-28T10:25:01.967Z,100716.44
2022-08-28T10:29:17.769Z,100716.44
2022-08-28T10:33:32.384Z,100713.97
2022-08-28T10:37:51.360Z,100715.41
2022-08-28T10:41:59.944Z,100708.03
2022-08-28T10:46:03.544Z,100707.72
2022-08-28T10:50:10.690Z,100694.81
2022-08-28T10:54:22.557Z,100702.47
2022-08-28T10:58:28.878Z,100703.66
2022-08-28T11:02:56.746Z,100682.16
2022-08-28T11:07:00.819Z,100694.59
2022-08-28T11:11:02.858Z,100677.41
2022-08-28T11:15:44.397Z,100693.69
2022-08-28T11:20:12.131Z,100664.44
2022-08-28T11:24:25.473Z,100676.88
2022-08-28T11:28:48.399Z,100697.88
2022-08-28T11:33:03.003Z,100693.28
2022-08-28T11:37:08.412Z,100683.66
2022-08-28T11:41:39.131Z,100681.59
2022-08-28T11:46:24.123Z,100687.13
2022-08-28T11:50:56.990Z,100683.31
2022-08-28T11:55:23.848Z,100676.47
2022-08-28T12:05:58.530Z,100656.25
2022-08-28T12:10:02.929Z,100656.38
2022-08-28T12:14:05.315Z,100656.56
2022-08-28T12:18:07.217Z,100667.41
2022-08-28T12:22:15.946Z,100657.59
2022-08-28T12:26:26.829Z,100647.09
2022-08-28T12:30:34.086Z,100661.06
2022-08-28T12:34:49.693Z,100651.31
2022-08-28T12:38:59.210Z,100658.13
2022-08-28T12:43:07.592Z,100646.50
2022-08-28T12:47:25.502Z,100651.06
2022-08-28T12:51:27.217Z,100638.78
2022-08-28T12:55:31.235Z,100644.31
2022-08-28T13:00:24.023Z,100644.31
2022-08-28T13:04:56.793Z,100633.97
2022-08-28T13:09:06.651Z,100627.81
2022-08-28T13:13:29.521Z,100639.41
2022-08-28T13:17:51.730Z,100643.47
2022-08-28T13:22:00.158Z,100636.31
2022-08-28T13:26:15.842Z,100626.22
2022-08-28T13:30:28.357Z,100628.50
2022-08-28T13:34:30.689Z,100631.59
2022-08-28T13:38:35.223Z,100627.22
2022-08-28T13:42:34.941Z,100624.31
2022-08-28T13:46:38.437Z,100624.19
2022-08-28T13:50:39.911Z,100615.84
2022-08-28T13:54:43.004Z,100615.34
2022-08-28T13:58:57.212Z,100615.53
2022-08-28T14:03:17.159Z,100618.59
2022-08-28T14:07:18.533Z,100612.63
2022-08-28T14:11:22.348Z,100613.97
2022-08-28T14:15:27.394Z,100605.50
2022-08-28T14:19:31.311Z,100606.69
2022-08-28T14:23:31.419Z,100615.53
2022-08-28T14:27:31.774Z,100585.19
2022-08-28T14:31:33.594Z,100611.56
2022-08-28T14:35:41.061Z,100607.88
2022-08-28T14:39:42.097Z,100612.19
2022-08-28T14:43:42.843Z,100606.09
2022-08-28T14:47:43.283Z,100610.53
2022-08-28T14:51:48.021Z,100602.69
2022-08-28T14:55:50.616Z,100607.63
2022-08-28T14:59:55.419Z,100605.91
2022-08-28T15:04:01.012Z,100607.78
2022-08-28T15:08:04.218Z,100596.72
2022-08-28T15:12:05.164Z,100604.91
2022-08-28T15:16:15.801Z,100605.59
2022-08-28T15:20:17.508Z,100606.28
2022-08-28T15:24:21.924Z,100608.69
2022-08-28T15:28:22.312Z,100607.63
2022-08-28T15:32:23.324Z,100601.34
2022-08-28T15:36:23.618Z,100600.66
2022-08-28T15:40:42.332Z,100602.91
2022-08-28T15:44:47.210Z,100596.91
2022-08-28T15:48:54.547Z,100580.84
2022-08-28T15:52:58.288Z,100577.47
2022-08-28T15:57:03.322Z,100566.22
2022-08-28T16:01:03.604Z,100581.75
2022-08-28T16:05:04.723Z,100576.94
2022-08-28T16:09:07.079Z,100576.28
2022-08-28T16:13:10.244Z,100576.09
2022-08-28T16:17:20.116Z,100563.13
2022-08-28T16:21:36.065Z,100570.63
2022-08-28T16:25:59.025Z,100567.56
2022-08-28T16:30:08.375Z,100566.19
2022-08-28T16:34:22.267Z,100578.56
2022-08-28T16:38:26.240Z,100582.16
2022-08-28T16:42:51.883Z,100583.09
2022-08-28T16:47:10.096Z,100587.19
2022-08-28T16:51:10.797Z,100564.56
2022-08-28T16:55:22.370Z,100597.41
2022-08-28T16:59:26.256Z,100600.75
2022-08-28T17:03:30.401Z,100596.09
2022-08-28T17:07:35.762Z,100590.59
2022-08-28T17:11:36.599Z,100605.03
2022-08-28T17:15:39.143Z,100592.56
2022-08-28T17:19:46.992Z,100628.09
2022-08-28T17:23:56.622Z,100620.97
2022-08-28T17:27:58.796Z,100645.56
2022-08-28T17:32:09.667Z,100647.91
2022-08-28T17:36:36.037Z,100647.31
2022-08-28T17:41:47.677Z,100657.16
2022-08-28T17:45:56.148Z,100661.91
2022-08-28T17:50:05.347Z,100666.91
2022-08-28T17:54:09.361Z,100661.22
2022-08-28T17:58:14.911Z,100664.56
2022-08-28T18:02:27.959Z,100652.13
2022-08-28T18:06:28.735Z,100684.97
2022-08-28T18:10:46.971Z,100671.34
2022-08-28T18:14:51.912Z,100654.00
2022-08-28T18:19:04.930Z,100674.75
2022-08-28T18:23:19.297Z,100688.00
2022-08-28T18:27:23.467Z,100677.13
2022-08-28T18:31:28.325Z,100674.22
2022-08-28T18:35:32.804Z,100690.06
2022-08-28T18:39:35.729Z,100680.00
2022-08-28T18:43:38.596Z,100694.34
2022-08-28T18:47:40.456Z,100704.69
2022-08-28T18:51:44.352Z,100701.63
2022-08-28T18:55:56.599Z,100694.63
2022-08-28T19:00:06.156Z,100701.31
2022-08-28T19:04:07.443Z,100705.75
2022-08-28T19:08:07.718Z,100693.50
2022-08-28T19:12:10.837Z,100695.81
2022-08-28T19:16:21.276Z,100703.81
2022-08-28T19:20:24.143Z,100713.25
2022-08-28T19:24:24.996Z,100708.72
2022-08-28T19:28:27.948Z,100702.03
2022-08-28T19:32:31.259Z,100714.47
2022-08-28T19:36:33.026Z,100718.94
2022-08-28T19:40:33.864Z,100710.84
2022-08-28T19:44:40.764Z,100729.84
2022-08-28T19:48:44.782Z,100723.69
2022-08-28T19:52:46.276Z,100737.00
2022-08-28T19:56:46.503Z,100730.75
2022-08-28T20:00:46.944Z,100743.22
2022-08-28T20:04:49.082Z,100737.63
2022-08-28T20:08:49.888Z,100728.69
2022-08-28T20:12:50.518Z,100741.84
2022-08-28T20:16:54.157Z,100740.28
2022-08-28T20:20:56.944Z,100747.63
2022-08-28T20:24:57.472Z,100751.03
2022-08-28T20:29:07.524Z,100744.84
2022-08-28T20:33:09.087Z,100749.38
2022-08-28T20:37:16.443Z,100752.44
2022-08-28T20:41:20.677Z,100745.50
2022-08-28T20:45:24.485Z,100747.50
2022-08-28T20:49:25.862Z,100750.56
2022-08-28T20:53:37.376Z,100766.75
2022-08-28T20:57:39.635Z,100772.22
2022-08-28T21:01:39.959Z,100749.78
2022-08-28T21:05:44.707Z,100769.84
2022-08-28T21:10:06.047Z,100773.03
2022-08-28T21:14:07.483Z,100768.63
2022-08-28T21:18:10.521Z,100771.69
2022-08-28T21:22:14.159Z,100768.50
2022-08-28T21:26:18.132Z,100777.34
2022-08-28T21:30:21.525Z,100758.03
2022-08-28T21:34:24.639Z,100773.56
2022-08-28T21:38:24.449Z,100779.03
2022-08-28T21:42:27.177Z,100772.66
2022-08-28T21:46:28.019Z,100785.94
2022-08-28T21:50:28.937Z,100790.53
2022-08-28T21:54:28.552Z,100792.44
2022-08-28T21:58:31.348Z,100796.94
2022-08-28T22:02:34.877Z,100792.16
2022-08-28T22:06:42.471Z,100794.50
2022-08-28T22:10:45.564Z,100801.03
2022-08-28T22:14:48.163Z,100805.63
2022-08-28T22:18:48.591Z,100796.03
2022-08-28T22:23:05.309Z,100770.69
2022-08-28T22:27:07.588Z,100801.25
2022-08-28T22:31:10.272Z,100793.44
2022-08-28T22:35:10.667Z,100793.47
2022-08-28T22:39:10.850Z,100799.50
2022-08-28T22:43:11.191Z,100792.19
2022-08-28T22:47:13.763Z,100798.00
2022-08-28T22:51:18.208Z,100785.09
2022-08-28T22:55:20.445Z,100777.97
2022-08-28T22:59:23.892Z,100792.78
2022-08-28T23:03:26.138Z,100782.47
2022-08-28T23:07:27.429Z,100744.22
2022-08-28T23:11:29.821Z,100786.84
2022-08-28T23:15:30.355Z,100785.44
2022-08-28T23:19:36.932Z,100773.91
2022-08-28T23:23:37.373Z,100787.53
2022-08-28T23:27:38.005Z,100794.00
2022-08-28T23:31:41.108Z,100782.97
2022-08-28T23:35:43.086Z,100785.22
2022-08-28T23:39:43.524Z,100780.69
2022-08-28T23:43:43.441Z,100803.84
2022-08-28T23:47:44.621Z,100807.59
2022-08-28T23:51:47.293Z,100806.81
2022-08-28T23:55:48.672Z,100762.63
2022-08-28T23:59:49.060Z,100801.69
